createdAt,value
2023-03-16T00:00:26.231Z,138.65
2023-03-16T00:04:25.951Z,137.28
2023-03-16T00:08:26.029Z,136.88
2023-03-16T00:12:26.155Z,136.16
2023-03-16T00:16:26.425Z,133.86
2023-03-16T00:20:26.558Z,131.10
2023-03-16T00:24:26.286Z,131.32
2023-03-16T00:28:26.336Z,127.63
2023-03-16T00:32:26.449Z,126.07
2023-03-16T00:36:26.455Z,126.56
2023-03-16T00:40:26.829Z,125.09
2023-03-16T00:44:26.542Z,123.43
2023-03-16T00:48:26.514Z,122.07
2023-03-16T00:52:26.503Z,122.47
2023-03-16T00:56:26.542Z,121.17
2023-03-16T01:00:26.864Z,120.97
2023-03-16T01:04:26.611Z,119.89
2023-03-16T01:08:26.610Z,119.89
2023-03-16T01:12:26.584Z,118.29
2023-03-16T01:16:26.617Z,119.54
2023-03-16T01:20:26.860Z,116.83
2023-03-16T01:24:26.528Z,116.42
2023-03-16T01:28:26.540Z,115.67
2023-03-16T01:32:26.602Z,115.69
2023-03-16T01:36:26.534Z,114.25
2023-03-16T01:40:26.880Z,113.66
2023-03-16T01:44:26.549Z,112.30
2023-03-16T01:48:26.522Z,112.51
2023-03-16T01:52:26.544Z,111.18
2023-03-16T01:56:26.551Z,110.82
2023-03-16T02:00:27.003Z,109.15
2023-03-16T02:04:26.567Z,109.50
2023-03-16T02:08:26.478Z,107.54
2023-03-16T02:12:26.451Z,108.05
2023-03-16T02:16:26.445Z,106.83
2023-03-16T02:20:26.769Z,105.76
2023-03-16T02:24:26.414Z,106.04
2023-03-16T02:28:26.409Z,104.58
2023-03-16T02:32:26.395Z,103.77
2023-03-16T02:36:26.430Z,103.66
2023-03-16T02:40:26.744Z,103.04
2023-03-16T02:44:26.377Z,101.71
2023-03-16T02:48:26.388Z,101.55
2023-03-16T02:52:26.344Z,101.95
2023-03-16T02:56:26.333Z,101.59
2023-03-16T03:00:26.604Z,100.77
2023-03-16T03:04:26.309Z,96.72
2023-03-16T03:08:26.266Z,98.04
2023-03-16T03:12:26.264Z,97.50
2023-03-16T03:16:26.338Z,98.92
2023-03-16T03:20:26.704Z,97.70
2023-03-16T03:24:26.277Z,97.76
2023-03-16T03:28:26.253Z,95.93
2023-03-16T03:32:26.326Z,96.16
2023-03-16T03:36:26.283Z,95.16
2023-03-16T03:40:26.627Z,95.72
2023-03-16T03:44:26.393Z,95.37
2023-03-16T03:48:26.326Z,95.73
2023-03-16T03:52:26.329Z,94.11
2023-03-16T03:56:26.350Z,94.05
2023-03-16T04:00:26.639Z,95.15
2023-03-16T04:04:26.367Z,94.58
2023-03-16T04:08:26.365Z,93.16
2023-03-16T04:12:26.397Z,92.45
2023-03-16T04:16:26.456Z,94.07
2023-03-16T04:20:26.787Z,92.83
2023-03-16T04:24:26.424Z,93.66
2023-03-16T04:28:26.506Z,91.70
2023-03-16T04:32:26.578Z,91.64
2023-03-16T04:36:26.444Z,91.34
2023-03-16T04:40:26.814Z,91.24
2023-03-16T04:44:26.508Z,90.80
2023-03-16T04:48:26.535Z,90.20
2023-03-16T04:52:26.516Z,91.19
2023-03-16T04:56:26.541Z,90.61
2023-03-16T05:00:26.897Z,90.29
2023-03-16T05:04:26.555Z,90.43
2023-03-16T05:08:26.577Z,92.19
2023-03-16T05:12:26.571Z,92.17
2023-03-16T05:16:26.655Z,91.86
2023-03-16T05:20:26.663Z,91.26
2023-03-16T05:24:26.574Z,90.44
2023-03-16T05:28:26.580Z,91.31
2023-03-16T05:32:26.611Z,90.58
2023-03-16T05:36:26.569Z,91.39
2023-03-16T05:40:26.894Z,91.13
2023-03-16T05:44:26.560Z,91.32
2023-03-16T05:48:26.545Z,90.54
2023-03-16T05:52:26.554Z,93.05
2023-03-16T05:56:26.540Z,89.13
2023-03-16T06:00:26.818Z,93.18
2023-03-16T06:04:26.574Z,100.42
2023-03-16T06:08:26.547Z,105.31
2023-03-16T06:12:26.573Z,113.32
2023-03-16T06:16:26.617Z,120.01
2023-03-16T06:20:26.827Z,127.96
2023-03-16T06:24:26.574Z,139.29
2023-03-16T06:28:26.526Z,146.62
2023-03-16T06:32:26.628Z,154.98
2023-03-16T06:36:26.613Z,162.46
2023-03-16T06:40:26.977Z,171.75
2023-03-16T06:44:27.269Z,175.87
2023-03-16T06:48:27.256Z,184.19
2023-03-16T06:52:26.898Z,192.31
2023-03-16T06:56:27.242Z,197.95
2023-03-16T07:00:27.526Z,206.96
2023-03-16T07:04:26.771Z,210.27
2023-03-16T07:08:26.705Z,204.97
2023-03-16T07:12:26.786Z,208.07
2023-03-16T07:16:26.873Z,205.15
2023-03-16T07:20:27.010Z,207.95
2023-03-16T07:24:26.562Z,214.11
2023-03-16T07:28:26.665Z,213.02
2023-03-16T07:32:26.855Z,222.90
2023-03-16T07:36:26.939Z,226.07
2023-03-16T07:40:27.590Z,228.66
2023-03-16T07:44:27.180Z,234.00
2023-03-16T07:48:27.790Z,236.05
2023-03-16T07:52:27.770Z,239.36
2023-03-16T07:56:31.602Z,242.44
2023-03-16T08:00:28.591Z,244.33
2023-03-16T08:04:27.380Z,245.42
2023-03-16T08:08:27.334Z,246.77
2023-03-16T08:12:27.412Z,248.39
2023-03-16T08:16:27.835Z,250.00
2023-03-16T08:20:27.769Z,248.36
2023-03-16T08:24:27.767Z,245.21
2023-03-16T08:28:27.557Z,244.66
2023-03-16T08:32:27.604Z,246.17
2023-03-16T08:36:27.605Z,244.19
2023-03-16T08:40:28.176Z,242.59
2023-03-16T08:44:27.775Z,241.33
2023-03-16T08:48:27.785Z,239.70
2023-03-16T08:52:27.817Z,241.26
2023-03-16T08:56:27.575Z,240.66
2023-03-16T09:00:27.957Z,239.35
2023-03-16T09:04:27.593Z,236.56
2023-03-16T09:08:27.793Z,240.58
2023-03-16T09:12:27.546Z,235.14
2023-03-16T09:16:27.836Z,227.34
2023-03-16T09:20:29.999Z,228.75
2023-03-16T09:24:27.465Z,232.63
2023-03-16T09:28:27.414Z,235.02
2023-03-16T09:32:27.444Z,236.12
2023-03-16T09:36:27.823Z,236.37
2023-03-16T09:40:27.792Z,229.51
2023-03-16T09:44:27.290Z,236.75
2023-03-16T09:48:27.271Z,230.96
2023-03-16T09:52:27.334Z,234.04
2023-03-16T09:56:27.320Z,230.29
2023-03-16T10:00:27.829Z,226.70
2023-03-16T10:04:27.121Z,221.70
2023-03-16T10:08:27.055Z,218.85
2023-03-16T10:12:27.241Z,211.74
2023-03-16T10:16:27.290Z,220.17
2023-03-16T10:20:27.505Z,215.60
2023-03-16T10:24:27.155Z,208.93
2023-03-16T10:28:27.084Z,213.89
2023-03-16T10:32:28.185Z,222.57
2023-03-16T10:36:27.061Z,217.77
2023-03-16T10:40:27.460Z,218.63
2023-03-16T10:44:27.380Z,213.42
2023-03-16T10:48:27.350Z,210.50
2023-03-16T10:52:27.359Z,215.96
2023-03-16T10:56:27.358Z,223.29
2023-03-16T11:00:27.348Z,211.36
2023-03-16T11:04:27.949Z,226.17
2023-03-16T11:08:27.760Z,202.64
2023-03-16T11:12:27.905Z,209.53
2023-03-16T11:16:28.291Z,209.51
2023-03-16T11:20:28.331Z,205.78
2023-03-16T11:24:28.530Z,183.65
2023-03-16T11:28:28.755Z,176.56
2023-03-16T11:32:28.974Z,165.86
2023-03-16T11:36:29.202Z,170.18
2023-03-16T11:40:29.328Z,174.72
2023-03-16T11:44:29.841Z,172.27
2023-03-16T11:48:29.669Z,172.62
2023-03-16T11:52:29.823Z,176.74
2023-03-16T11:56:30.011Z,174.59
2023-03-16T12:00:30.160Z,176.45
2023-03-16T12:04:30.376Z,170.98
2023-03-16T12:08:30.502Z,175.82
2023-03-16T12:12:30.635Z,164.64
2023-03-16T12:16:39.059Z,216.36
2023-03-16T12:20:31.794Z,211.41
2023-03-16T12:24:30.693Z,220.77
2023-03-16T12:28:31.387Z,178.52
2023-03-16T12:32:31.346Z,174.76
2023-03-16T12:36:31.356Z,169.83
2023-03-16T12:40:31.361Z,175.05
2023-03-16T12:44:31.273Z,170.01
2023-03-16T12:48:31.880Z,153.19
2023-03-16T12:52:31.580Z,150.00
2023-03-16T12:56:31.871Z,162.81
2023-03-16T13:00:31.903Z,155.93
2023-03-16T13:04:32.163Z,139.09
2023-03-16T13:08:32.225Z,134.43
2023-03-16T13:12:32.403Z,151.62
2023-03-16T13:16:32.699Z,152.89
2023-03-16T13:20:32.936Z,163.12
2023-03-16T13:24:33.397Z,156.10
2023-03-16T13:28:33.381Z,155.85
2023-03-16T13:32:33.330Z,167.98
2023-03-16T13:36:33.363Z,174.34
2023-03-16T13:40:33.872Z,146.63
2023-03-16T13:44:33.722Z,138.81
2023-03-16T13:48:33.902Z,140.20
2023-03-16T13:52:33.995Z,152.91
2023-03-16T13:56:34.158Z,171.20
2023-03-16T14:00:34.322Z,143.19
2023-03-16T14:04:34.506Z,135.17
2023-03-16T14:08:34.750Z,128.68
2023-03-16T14:12:34.840Z,142.42
2023-03-16T14:16:35.392Z,143.33
2023-03-16T14:20:41.223Z,164.01
2023-03-16T14:24:36.189Z,121.03
2023-03-16T14:28:35.264Z,71.05
2023-03-16T14:32:35.285Z,85.08
2023-03-16T14:36:35.227Z,111.95
2023-03-16T14:40:35.226Z,138.49
2023-03-16T14:44:35.155Z,138.36
2023-03-16T14:48:35.100Z,140.04
2023-03-16T14:52:35.071Z,160.22
2023-03-16T14:56:35.435Z,197.59
2023-03-16T15:00:50.222Z,194.22
2023-03-16T15:04:36.003Z,199.19
2023-03-16T15:08:35.440Z,196.15
2023-03-16T15:12:35.445Z,217.37
2023-03-16T15:16:35.471Z,205.83
2023-03-16T15:20:35.419Z,226.00
2023-03-16T15:24:35.640Z,219.77
2023-03-16T15:28:35.851Z,222.51
2023-03-16T15:32:36.106Z,185.90
2023-03-16T15:36:36.453Z,192.70
2023-03-16T15:40:35.958Z,180.92
2023-03-16T15:44:35.971Z,209.44
2023-03-16T15:48:35.915Z,191.77
2023-03-16T15:52:35.880Z,205.60
2023-03-16T15:56:47.253Z,185.19
2023-03-16T16:00:36.852Z,172.68
2023-03-16T16:04:35.864Z,145.58
2023-03-16T16:08:35.984Z,143.08
2023-03-16T16:12:35.933Z,143.44
2023-03-16T16:16:35.978Z,150.74
2023-03-16T16:20:35.961Z,161.51
2023-03-16T16:24:35.819Z,171.58
2023-03-16T16:28:35.809Z,178.56
2023-03-16T16:32:35.838Z,170.30
2023-03-16T16:36:35.738Z,187.75
2023-03-16T16:40:35.706Z,176.65
2023-03-16T16:44:37.997Z,191.28
2023-03-16T16:48:35.873Z,184.21
2023-03-16T16:52:35.845Z,200.55
2023-03-16T16:56:35.769Z,205.70
2023-03-16T17:00:35.771Z,204.94
2023-03-16T17:04:35.778Z,213.11
2023-03-16T17:08:35.709Z,221.74
2023-03-16T17:12:35.643Z,218.96
2023-03-16T17:16:35.715Z,219.12
2023-03-16T17:20:35.555Z,250.98
2023-03-16T17:24:35.560Z,216.40
2023-03-16T17:28:35.616Z,233.17
2023-03-16T17:32:35.642Z,214.49
2023-03-16T17:36:35.509Z,224.58
2023-03-16T17:40:35.482Z,246.70
2023-03-16T17:44:35.453Z,241.01
2023-03-16T17:48:35.418Z,244.06
2023-03-16T17:52:35.383Z,243.41
2023-03-16T17:56:35.351Z,249.27
2023-03-16T18:00:35.309Z,248.57
2023-03-16T18:04:35.263Z,246.05
2023-03-16T18:08:35.222Z,246.79
2023-03-16T18:12:35.189Z,247.57
2023-03-16T18:16:35.231Z,247.61
2023-03-16T18:20:35.167Z,249.46
2023-03-16T18:24:35.138Z,241.50
2023-03-16T18:28:35.100Z,238.11
2023-03-16T18:32:35.122Z,237.86
2023-03-16T18:36:35.028Z,238.14
2023-03-16T18:40:34.987Z,235.06
2023-03-16T18:44:34.952Z,236.74
2023-03-16T18:48:34.945Z,236.54
2023-03-16T18:52:34.923Z,233.82
2023-03-16T18:56:34.861Z,232.87
2023-03-16T19:00:34.852Z,230.80
2023-03-16T19:04:34.739Z,228.08
2023-03-16T19:08:34.744Z,226.24
2023-03-16T19:12:34.794Z,220.98
2023-03-16T19:16:34.888Z,221.57
2023-03-16T19:20:34.958Z,216.83
2023-03-16T19:24:35.082Z,211.61
2023-03-16T19:28:35.101Z,209.23
2023-03-16T19:32:35.190Z,206.96
2023-03-16T19:36:35.248Z,200.99
2023-03-16T19:40:35.313Z,197.96
2023-03-16T19:44:35.360Z,195.73
2023-03-16T19:48:35.402Z,193.53
2023-03-16T19:52:35.411Z,190.83
2023-03-16T19:56:35.465Z,188.54
2023-03-16T20:00:35.466Z,184.73
2023-03-16T20:04:35.539Z,179.58
2023-03-16T20:08:35.440Z,180.27
2023-03-16T20:12:35.418Z,174.22
2023-03-16T20:16:35.450Z,170.86
2023-03-16T20:20:35.376Z,171.43
2023-03-16T20:24:35.402Z,171.02
2023-03-16T20:28:35.361Z,165.24
2023-03-16T20:32:35.414Z,164.78
2023-03-16T20:36:35.312Z,164.10
2023-03-16T20:40:35.328Z,158.83
2023-03-16T20:44:35.267Z,158.70
2023-03-16T20:48:35.298Z,159.42
2023-03-16T20:52:35.272Z,154.74
2023-03-16T20:56:35.244Z,154.98
2023-03-16T21:00:35.246Z,154.48
2023-03-16T21:04:35.306Z,152.98
2023-03-16T21:08:35.186Z,151.41
2023-03-16T21:12:35.198Z,145.47
2023-03-16T21:16:35.212Z,145.71
2023-03-16T21:20:35.183Z,142.48
2023-03-16T21:24:35.178Z,142.71
2023-03-16T21:28:35.166Z,137.80
2023-03-16T21:32:35.154Z,136.86
2023-03-16T21:36:35.152Z,135.76
2023-03-16T21:40:35.179Z,132.17
2023-03-16T21:44:35.214Z,131.63
2023-03-16T21:48:35.175Z,130.02
2023-03-16T21:52:35.175Z,127.82
2023-03-16T21:56:35.210Z,126.94
2023-03-16T22:00:35.241Z,120.58
2023-03-16T22:04:35.260Z,120.12
2023-03-16T22:08:35.254Z,120.55
2023-03-16T22:12:35.312Z,116.08
2023-03-16T22:16:35.396Z,112.62
2023-03-16T22:20:35.406Z,113.21
2023-03-16T22:24:35.458Z,111.98
2023-03-16T22:28:35.462Z,112.02
2023-03-16T22:32:35.586Z,107.41
2023-03-16T22:36:35.554Z,106.35
2023-03-16T22:40:35.580Z,104.17
2023-03-16T22:44:35.633Z,100.03
2023-03-16T22:48:35.667Z,102.64
2023-03-16T22:52:35.735Z,99.76
2023-03-16T22:56:35.787Z,95.71
2023-03-16T23:00:35.831Z,99.12
2023-03-16T23:04:35.914Z,95.02
2023-03-16T23:08:35.933Z,93.02
2023-03-16T23:12:35.961Z,93.00
2023-03-16T23:16:36.053Z,91.75
2023-03-16T23:20:36.098Z,91.41
2023-03-16T23:24:36.145Z,85.87
2023-03-16T23:28:36.193Z,86.61
2023-03-16T23:32:36.276Z,86.24
2023-03-16T23:36:36.273Z,89.00
2023-03-16T23:40:36.372Z,85.41
2023-03-16T23:44:36.444Z,86.13
2023-03-16T23:48:36.490Z,85.70
2023-03-16T23:52:36.575Z,78.93
2023-03-16T23:56:36.673Z,82.10
